Time;durP1;ratioP1;P1;durP2;ratioP2;P2;SDS_P1;SDS_P2;PMS_P1;PMS_P2;Temp;Humidity;BMP_temperature;BMP_pressure;BME280_temperature;BME280_humidity;BME280_pressure;Samples;Min_cycle;Max_cycle;Signal;HPM_P1;HPM_P2
2024/04/14 00:00:47;;;;;;;5.23;3.90;;;12.50;1.00;;;;;;5333090;26;21035;-70
2024/04/14 00:03:13;;;;;;;5.43;2.60;;;12.40;1.00;;;;;;5332728;26;20468;-71
2024/04/14 00:05:39;;;;;;;4.10;2.40;;;12.30;1.10;;;;;;5333789;26;20531;-71
2024/04/14 00:08:05;;;;;;;5.10;3.40;;;12.30;1.30;;;;;;5331103;26;20464;-71
2024/04/14 00:10:31;;;;;;;3.70;2.60;;;12.30;2.30;;;;;;5331355;26;20520;-70
2024/04/14 00:12:57;;;;;;;7.10;3.57;;;12.20;1.70;;;;;;5332524;26;20523;-71
2024/04/14 00:15:22;;;;;;;6.03;3.33;;;12.30;1.30;;;;;;5331095;26;20987;-70
2024/04/14 00:17:48;;;;;;;3.87;3.17;;;12.30;1.00;;;;;;5330878;26;20717;-70
2024/04/14 00:20:14;;;;;;;4.43;3.33;;;12.40;1.00;;;;;;5332986;26;20592;-70
2024/04/14 00:22:39;;;;;;;6.33;4.07;;;12.30;1.00;;;;;;5332384;26;20407;-70
2024/04/14 00:25:05;;;;;;;4.90;3.43;;;12.30;1.00;;;;;;5332266;26;20319;-71
2024/04/14 00:27:30;;;;;;;3.90;3.27;;;12.40;1.00;;;;;;5332486;26;20307;-70
2024/04/14 00:29:56;;;;;;;6.17;4.70;;;12.30;1.00;;;;;;5330720;26;20246;-70
2024/04/14 00:32:22;;;;;;;6.67;4.70;;;12.30;1.00;;;;;;5332125;26;20222;-70
2024/04/14 00:34:51;;;;;;;6.73;3.77;;;12.20;1.00;;;;;;5330034;26;20252;-70
2024/04/14 00:37:16;;;;;;;4.37;3.20;;;12.20;1.00;;;;;;5332238;26;20226;-70
2024/04/14 00:39:42;;;;;;;5.53;4.20;;;12.30;1.00;;;;;;5330248;26;20937;-70
2024/04/14 00:42:07;;;;;;;6.10;3.67;;;12.30;1.00;;;;;;5332209;26;20226;-69
2024/04/14 00:44:34;;;;;;;6.67;3.20;;;12.30;1.00;;;;;;5329927;26;20461;-71
2024/04/14 00:46:59;;;;;;;3.40;2.73;;;12.30;1.00;;;;;;5332004;26;20695;-70
2024/04/14 00:49:25;;;;;;;3.63;3.17;;;12.30;1.00;;;;;;5331819;26;20464;-72
2024/04/14 00:51:52;;;;;;;5.33;3.57;;;12.30;1.00;;;;;;5333131;26;20618;-70
2024/04/14 00:54:19;;;;;;;4.30;3.20;;;12.40;1.00;;;;;;5335518;26;20488;-70
2024/04/14 00:56:48;;;;;;;6.00;3.90;;;12.40;1.00;;;;;;5335865;26;20484;-70
2024/04/14 00:59:14;;;;;;;7.37;3.70;;;12.40;1.00;;;;;;5335856;26;20582;-71
2024/04/14 01:01:40;;;;;;;7.10;3.33;;;12.40;1.00;;;;;;5335817;26;20452;-70
2024/04/14 01:04:07;;;;;;;8.13;3.27;;;12.30;1.00;;;;;;5333700;26;20505;-71
2024/04/14 01:06:34;;;;;;;5.10;2.90;;;12.30;1.00;;;;;;5335481;26;20612;-70
2024/04/14 01:09:00;;;;;;;4.97;3.57;;;12.30;1.00;;;;;;5335446;26;20624;-71
2024/04/14 01:11:26;;;;;;;5.50;3.17;;;12.20;1.00;;;;;;5335322;26;20453;-71
2024/04/14 01:13:51;;;;;;;10.27;3.73;;;12.10;1.00;;;;;;5334613;26;20555;-69
2024/04/14 01:16:17;;;;;;;6.13;3.63;;;12.00;1.00;;;;;;5333135;26;20280;-69
2024/04/14 01:18:42;;;;;;;5.00;3.23;;;11.90;1.00;;;;;;5333460;26;20246;-68
2024/04/14 01:21:08;;;;;;;4.83;3.40;;;11.90;1.00;;;;;;5333608;26;20560;-69
2024/04/14 01:23:33;;;;;;;3.03;2.73;;;11.70;1.00;;;;;;5334674;26;20334;-70
2024/04/14 01:25:59;;;;;;;4.33;2.97;;;11.70;1.00;;;;;;5334976;26;20365;-70
2024/04/14 01:28:25;;;;;;;3.60;2.60;;;11.60;1.00;;;;;;5334926;26;20565;-70
2024/04/14 01:30:50;;;;;;;5.13;3.10;;;11.60;1.10;;;;;;5335298;26;20265;-70
2024/04/14 01:33:17;;;;;;;3.63;2.70;;;11.50;1.20;;;;;;5334415;26;20338;-70
2024/04/14 01:35:43;;;;;;;5.07;3.63;;;11.50;1.30;;;;;;5334903;26;20222;-70
2024/04/14 01:38:09;;;;;;;3.50;3.00;;;11.40;1.70;;;;;;5332781;26;20980;-70
2024/04/14 01:40:34;;;;;;;5.40;3.47;;;11.40;1.60;;;;;;5359634;21;20499;-70
2024/04/14 01:43:00;;;;;;;5.00;2.80;;;11.40;2.30;;;;;;5334798;26;20249;-70
2024/04/14 01:45:25;;;;;;;4.37;3.00;;;11.40;1.70;;;;;;5336839;26;20268;-70
2024/04/14 01:47:51;;;;;;;3.93;3.53;;;11.40;1.20;;;;;;5336753;26;20574;-70
2024/04/14 01:50:16;;;;;;;3.47;2.93;;;11.40;1.00;;;;;;5334809;26;20240;-71
2024/04/14 01:52:42;;;;;;;5.10;3.90;;;11.40;1.00;;;;;;5336358;26;20268;-71
2024/04/14 01:55:08;;;;;;;4.17;3.27;;;11.40;1.00;;;;;;5336157;26;20330;-71
2024/04/14 01:57:34;;;;;;;5.10;2.87;;;11.40;1.00;;;;;;5336306;26;20225;-71
2024/04/14 02:00:00;;;;;;;3.00;2.30;;;11.30;1.00;;;;;;5336407;26;20270;-71
2024/04/14 02:02:25;;;;;;;9.93;2.77;;;11.30;1.00;;;;;;5363634;26;20478;-70
2024/04/14 02:04:52;;;;;;;4.60;2.30;;;11.30;1.00;;;;;;5335089;26;20214;-70
2024/04/14 02:07:18;;;;;;;3.97;2.50;;;11.30;1.00;;;;;;5336219;26;20265;-70
2024/04/14 02:09:43;;;;;;;4.37;2.13;;;11.30;1.00;;;;;;5335957;26;20472;-71
2024/04/14 02:12:09;;;;;;;3.47;2.10;;;11.30;1.00;;;;;;5336355;26;20670;-70
2024/04/14 02:14:35;;;;;;;4.33;2.90;;;11.20;1.00;;;;;;5335882;26;20637;-70
2024/04/14 02:17:01;;;;;;;5.47;3.13;;;11.20;1.00;;;;;;5336045;26;20448;-70
2024/04/14 02:19:26;;;;;;;3.70;2.07;;;11.20;1.00;;;;;;5334356;26;20268;-71
2024/04/14 02:21:52;;;;;;;7.60;3.37;;;11.10;1.00;;;;;;5335889;26;20264;-71
2024/04/14 02:24:17;;;;;;;3.90;2.40;;;11.20;1.00;;;;;;5333841;26;20271;-70
2024/04/14 02:26:43;;;;;;;12.43;2.70;;;11.20;1.00;;;;;;5363124;26;20257;-70
2024/04/14 02:29:09;;;;;;;3.77;2.23;;;11.10;1.00;;;;;;5336071;26;20688;-70
2024/04/14 02:31:35;;;;;;;3.23;2.33;;;11.10;1.00;;;;;;5336185;26;20463;-71
2024/04/14 02:34:00;;;;;;;3.60;2.50;;;11.10;1.00;;;;;;5335448;26;20225;-70
2024/04/14 02:36:28;;;;;;;4.37;2.60;;;11.10;1.00;;;;;;5335793;26;20222;-70
2024/04/14 02:42:16;;;;;;;6.60;3.13;;;11.10;1.00;;;;;;5335586;26;21021;-70
2024/04/14 02:44:42;;;;;;;3.47;2.43;;;11.10;1.00;;;;;;5362954;26;20515;-70
2024/04/14 02:47:07;;;;;;;5.50;2.70;;;11.10;1.00;;;;;;5335777;26;21099;-70
2024/04/14 02:49:33;;;;;;;2.67;1.90;;;11.10;1.00;;;;;;5335485;26;20236;-70
2024/04/14 02:51:58;;;;;;;4.53;2.80;;;11.10;1.00;;;;;;5335617;26;20224;-70
2024/04/14 02:54:24;;;;;;;4.43;2.60;;;11.10;1.00;;;;;;5333200;26;20558;-71
2024/04/14 02:56:52;;;;;;;3.50;2.60;;;11.10;1.00;;;;;;5362676;26;20228;-70
2024/04/14 02:59:18;;;;;;;3.63;2.43;;;11.10;1.00;;;;;;5335140;26;20241;-70
2024/04/14 03:01:45;;;;;;;8.03;2.97;;;11.10;1.00;;;;;;5362607;26;20492;-70
2024/04/14 03:04:11;;;;;;;3.20;2.40;;;11.00;1.00;;;;;;5334859;26;20271;-70
2024/04/14 03:06:36;;;;;;;2.50;1.67;;;11.00;1.00;;;;;;5335306;26;20797;-71
2024/04/14 03:09:02;;;;;;;3.70;2.80;;;11.00;1.00;;;;;;5335566;26;20570;-71
2024/04/14 03:11:27;;;;;;;3.03;1.80;;;11.00;1.00;;;;;;5335464;26;20226;-71
2024/04/14 03:13:53;;;;;;;3.73;1.87;;;11.00;1.00;;;;;;5333121;26;20253;-71
2024/04/14 03:16:18;;;;;;;3.77;1.90;;;11.00;1.00;;;;;;5334425;26;20603;-71
2024/04/14 03:18:48;;;;;;;3.53;2.37;;;11.00;1.00;;;;;;5335097;26;20331;-71
2024/04/14 03:21:13;;;;;;;4.73;2.17;;;10.90;1.00;;;;;;5335956;26;20345;-71
2024/04/14 03:23:39;;;;;;;4.10;3.13;;;10.90;1.00;;;;;;5336124;26;20491;-71
2024/04/14 03:26:06;;;;;;;2.40;1.53;;;10.90;1.00;;;;;;5335929;26;20719;-71
2024/04/14 03:28:31;;;;;;;3.37;2.17;;;10.90;1.00;;;;;;5337512;26;20453;-70
2024/04/14 03:31:01;;;;;;;4.20;2.80;;;10.90;1.00;;;;;;5335756;26;20569;-71
2024/04/14 03:33:30;;;;;;;4.43;2.23;;;10.90;1.00;;;;;;5336257;26;20352;-70
2024/04/14 03:36:03;;;;;;;3.80;2.20;;;10.90;1.00;;;;;;5336668;26;20451;-70
2024/04/14 03:38:30;;;;;;;4.00;2.60;;;10.90;1.00;;;;;;5336066;26;20771;-71
2024/04/14 03:40:56;;;;;;;3.63;2.57;;;10.80;1.00;;;;;;5336340;26;20502;-71
2024/04/14 03:43:21;;;;;;;3.67;2.40;;;10.90;1.00;;;;;;5335313;26;20452;-71
2024/04/14 03:45:47;;;;;;;3.20;1.90;;;10.90;1.00;;;;;;5333335;26;20464;-71
2024/04/14 03:48:12;;;;;;;3.10;2.07;;;10.90;1.00;;;;;;5362263;26;20727;-71
2024/04/14 03:50:38;;;;;;;4.30;1.87;;;10.90;1.00;;;;;;5334865;26;20237;-71
2024/04/14 03:53:04;;;;;;;5.50;2.07;;;10.90;1.00;;;;;;5332988;26;20245;-71
2024/04/14 03:55:31;;;;;;;4.70;2.03;;;10.90;1.00;;;;;;5333011;26;20270;-71
2024/04/14 03:57:57;;;;;;;4.40;2.33;;;10.90;1.00;;;;;;5362096;26;20560;-71
2024/04/14 04:00:23;;;;;;;4.43;2.27;;;10.90;1.00;;;;;;5332850;26;20547;-71
2024/04/14 04:02:48;;;;;;;4.10;2.53;;;10.90;1.00;;;;;;5334738;26;20225;-71
2024/04/14 04:05:14;;;;;;;4.83;2.13;;;10.80;1.00;;;;;;5334414;26;20264;-71
2024/04/14 04:07:40;;;;;;;4.60;2.80;;;10.80;1.00;;;;;;5334739;26;20225;-71
2024/04/14 04:10:05;;;;;;;4.17;1.83;;;10.80;1.00;;;;;;5334395;26;20242;-71
2024/04/14 04:12:31;;;;;;;6.40;2.70;;;10.80;1.00;;;;;;5334370;26;20325;-71
2024/04/14 04:14:57;;;;;;;3.50;2.43;;;10.70;1.00;;;;;;5334345;26;20253;-71
2024/04/14 04:17:22;;;;;;;3.20;2.43;;;10.70;1.00;;;;;;5334368;26;20233;-71
2024/04/14 04:19:48;;;;;;;3.50;2.27;;;10.70;1.00;;;;;;5334385;26;20335;-71
2024/04/14 04:22:13;;;;;;;3.23;1.73;;;10.60;1.00;;;;;;5334205;26;20228;-71
2024/04/14 04:24:39;;;;;;;3.10;1.90;;;10.60;1.00;;;;;;5333860;26;20343;-71
2024/04/14 04:27:04;;;;;;;2.47;1.77;;;10.60;1.00;;;;;;5336051;26;20631;-71
2024/04/14 04:29:31;;;;;;;2.90;2.10;;;10.60;1.00;;;;;;5337805;26;20701;-71
2024/04/14 04:31:56;;;;;;;3.33;1.97;;;10.50;1.00;;;;;;5337607;26;20266;-71
2024/04/14 04:34:22;;;;;;;5.77;2.70;;;10.50;1.00;;;;;;5337200;26;20456;-70
2024/04/14 04:36:53;;;;;;;3.23;2.30;;;10.50;1.00;;;;;;5337331;26;20221;-70
2024/04/14 04:39:19;;;;;;;6.63;2.90;;;10.50;1.00;;;;;;5337577;26;20246;-70
2024/04/14 04:41:44;;;;;;;5.00;2.47;;;10.50;1.00;;;;;;5337274;26;20452;-70
2024/04/14 04:44:10;;;;;;;2.70;1.73;;;10.50;1.00;;;;;;5335320;26;20236;-71
2024/04/14 04:46:36;;;;;;;3.80;2.40;;;10.50;1.00;;;;;;5337454;26;20272;-70
2024/04/14 04:49:02;;;;;;;3.10;2.20;;;10.60;1.00;;;;;;5337625;26;20518;-71
2024/04/14 04:51:27;;;;;;;3.07;1.83;;;10.60;1.00;;;;;;5337303;26;20454;-71
2024/04/14 04:53:53;;;;;;;2.40;1.90;;;10.60;1.00;;;;;;5335083;26;20268;-71
2024/04/14 04:56:22;;;;;;;5.13;2.63;;;10.70;1.00;;;;;;5337236;26;20271;-71
2024/04/14 04:58:47;;;;;;;2.80;2.30;;;10.70;1.00;;;;;;5337379;26;20234;-71
2024/04/14 05:01:13;;;;;;;4.10;2.43;;;10.70;1.00;;;;;;5335475;26;20464;-71
2024/04/14 05:03:38;;;;;;;4.60;2.63;;;10.80;1.00;;;;;;5336789;26;20256;-71
2024/04/14 05:06:05;;;;;;;4.03;2.63;;;10.90;1.00;;;;;;5337357;26;20583;-71
2024/04/14 05:08:34;;;;;;;2.47;1.83;;;10.90;1.00;;;;;;5335304;26;20225;-71
2024/04/14 05:11:00;;;;;;;5.93;2.80;;;11.00;1.00;;;;;;5335669;26;20479;-71
2024/04/14 05:13:26;;;;;;;3.50;2.33;;;11.10;1.00;;;;;;5336794;26;20505;-71
2024/04/14 05:15:55;;;;;;;3.37;2.37;;;11.20;1.00;;;;;;5337229;26;20569;-71
2024/04/14 05:18:21;;;;;;;3.63;2.20;;;11.30;1.00;;;;;;5337091;26;20576;-71
2024/04/14 05:20:47;;;;;;;5.40;2.23;;;11.40;1.00;;;;;;5336747;26;20789;-71
2024/04/14 05:23:12;;;;;;;4.30;2.97;;;11.60;1.00;;;;;;5334865;26;20496;-71
2024/04/14 05:25:41;;;;;;;7.53;2.77;;;11.70;1.00;;;;;;5336679;26;20643;-71
2024/04/14 05:28:07;;;;;;;5.20;2.87;;;11.80;1.00;;;;;;5335203;26;20257;-71
2024/04/14 05:30:35;;;;;;;3.70;2.37;;;12.10;1.00;;;;;;5336702;26;20535;-71
2024/04/14 05:33:00;;;;;;;3.70;2.47;;;12.90;1.00;;;;;;5337180;26;20257;-71
2024/04/14 05:35:26;;;;;;;3.30;2.53;;;13.90;1.00;;;;;;5334834;26;20517;-71
2024/04/14 05:37:52;;;;;;;4.40;2.80;;;14.80;1.00;;;;;;5334875;26;20242;-71
2024/04/14 05:40:18;;;;;;;2.93;2.43;;;16.00;1.00;;;;;;5336713;26;20270;-71
2024/04/14 05:42:44;;;;;;;2.70;2.10;;;17.00;1.00;;;;;;5336684;26;20222;-71
2024/04/14 05:45:09;;;;;;;2.60;2.27;;;17.70;1.00;;;;;;5336455;26;20441;-71
2024/04/14 05:47:36;;;;;;;2.63;2.30;;;18.70;1.00;;;;;;5364383;26;20226;-71
2024/04/14 05:50:02;;;;;;;4.77;2.93;;;19.50;1.00;;;;;;5338096;26;20523;-71
2024/04/14 05:52:27;;;;;;;4.20;3.60;;;20.00;1.00;;;;;;5337963;26;20815;-71
2024/04/14 05:54:53;;;;;;;3.90;2.70;;;21.10;1.00;;;;;;5336741;26;20501;-71
2024/04/14 05:57:18;;;;;;;3.60;3.30;;;21.90;1.00;;;;;;5337047;26;20226;-71
2024/04/14 05:59:45;;;;;;;3.90;3.50;;;22.60;1.00;;;;;;5337117;26;20279;-71
2024/04/14 06:02:11;;;;;;;3.03;2.80;;;23.40;1.00;;;;;;5335158;26;20238;-71
2024/04/14 06:04:36;;;;;;;2.87;2.67;;;24.10;1.00;;;;;;5334403;26;21016;-71
2024/04/14 06:07:02;;;;;;;4.73;3.50;;;25.00;1.00;;;;;;5336447;26;20520;-71
2024/04/14 06:09:28;;;;;;;3.80;3.20;;;26.10;1.00;;;;;;5336855;26;20238;-71
2024/04/14 06:11:56;;;;;;;5.57;3.73;;;26.90;1.00;;;;;;5336310;26;20996;-72
2024/04/14 06:14:25;;;;;;;4.20;3.90;;;27.60;1.00;;;;;;5334321;26;20669;-71
2024/04/14 06:16:51;;;;;;;4.53;4.03;;;27.70;1.00;;;;;;5336559;26;20901;-71
2024/04/14 06:19:17;;;;;;;4.40;3.60;;;27.70;1.00;;;;;;5336403;26;20468;-71
2024/04/14 06:21:43;;;;;;;4.00;3.70;;;27.90;1.00;;;;;;5336741;26;20226;-71
2024/04/14 06:24:08;;;;;;;4.70;4.23;;;28.30;1.00;;;;;;5363583;26;20567;-71
2024/04/14 06:26:34;;;;;;;4.50;4.10;;;28.80;1.00;;;;;;5363199;26;20460;-71
2024/04/14 06:28:59;;;;;;;3.77;3.47;;;28.80;1.00;;;;;;5363284;26;20233;-72
2024/04/14 06:31:25;;;;;;;3.90;3.60;;;28.90;1.00;;;;;;5334275;26;20759;-71
2024/04/14 06:33:51;;;;;;;4.17;3.70;;;29.40;1.00;;;;;;5335637;26;20226;-71
2024/04/14 06:36:16;;;;;;;5.33;3.87;;;30.10;1.00;;;;;;5335789;26;20268;-71
2024/04/14 06:38:44;;;;;;;4.37;4.07;;;31.00;1.00;;;;;;5335955;26;20767;-71
2024/04/14 06:41:10;;;;;;;3.73;3.47;;;;;;;;;;5336336;26;20221;-71
2024/04/14 06:43:36;;;;;;;4.73;4.33;;;32.20;1.00;;;;;;5335429;26;20975;-71
2024/04/14 06:46:02;;;;;;;4.43;4.10;;;32.30;1.00;;;;;;5334074;26;20497;-71
2024/04/14 06:48:27;;;;;;;4.17;3.73;;;32.80;1.00;;;;;;5335776;26;20285;-71
2024/04/14 06:50:53;;;;;;;4.50;4.20;;;33.30;1.00;;;;;;5334683;26;20444;-72
2024/04/14 06:53:20;;;;;;;4.27;3.97;;;33.30;1.00;;;;;;5335569;26;20710;-71
2024/04/14 06:55:47;;;;;;;3.90;3.60;;;32.50;1.00;;;;;;5336267;26;20222;-70
2024/04/14 06:58:13;;;;;;;4.07;3.73;;;32.40;1.00;;;;;;5364234;26;20449;-71
2024/04/14 07:00:39;;;;;;;4.37;4.03;;;32.50;1.00;;;;;;5337345;26;20860;-71
2024/04/14 07:03:04;;;;;;;4.17;3.77;;;32.60;1.00;;;;;;5336918;26;20501;-70
2024/04/14 07:05:30;;;;;;;3.60;3.30;;;32.70;1.00;;;;;;5336841;26;20269;-71
2024/04/14 07:07:56;;;;;;;3.83;3.53;;;32.40;1.00;;;;;;5336417;26;20412;-71
2024/04/14 07:10:21;;;;;;;4.30;3.90;;;32.40;1.00;;;;;;5336059;26;20318;-71
2024/04/14 07:12:47;;;;;;;6.93;3.50;;;32.40;1.00;;;;;;5337230;26;20229;-71
2024/04/14 07:15:13;;;;;;;4.13;3.83;;;32.70;1.00;;;;;;5363509;26;20230;-70
2024/04/14 07:17:39;;;;;;;3.67;3.37;;;32.90;1.00;;;;;;5336057;26;20260;-71
2024/04/14 07:20:05;;;;;;;3.53;3.23;;;33.40;1.00;;;;;;5336246;26;20464;-71
2024/04/14 07:22:31;;;;;;;3.50;3.30;;;33.50;1.00;;;;;;5336041;26;20225;-71
2024/04/14 07:24:58;;;;;;;5.40;3.40;;;34.10;1.00;;;;;;5335211;26;20496;-71
2024/04/14 07:27:24;;;;;;;3.70;3.27;;;35.00;1.00;;;;;;5336068;26;20303;-71
2024/04/14 07:29:50;;;;;;;3.90;3.60;;;35.00;1.00;;;;;;5335313;26;20472;-71
2024/04/14 07:32:16;;;;;;;3.80;3.50;;;35.50;1.00;;;;;;5336551;26;20696;-71
2024/04/14 07:34:42;;;;;;;4.27;3.80;;;34.90;1.00;;;;;;5335626;26;20248;-71
2024/04/14 07:37:07;;;;;;;4.27;3.87;;;33.10;1.00;;;;;;5333950;26;20539;-71
2024/04/14 07:39:33;;;;;;;4.03;3.63;;;32.80;1.00;;;;;;5336136;26;20890;-70
2024/04/14 07:42:00;;;;;;;4.83;3.47;;;32.30;1.00;;;;;;5333172;26;20249;-70
2024/04/14 07:44:26;;;;;;;4.27;3.87;;;31.30;1.00;;;;;;5361729;26;20326;-71
2024/04/14 07:46:52;;;;;;;3.40;3.10;;;30.30;1.00;;;;;;5333182;26;20456;-71
2024/04/14 07:49:17;;;;;;;2.90;2.70;;;29.60;1.00;;;;;;5334719;26;20695;-71
2024/04/14 07:51:43;;;;;;;4.17;3.53;;;;;;;;;;5335159;26;20218;-71
2024/04/14 07:54:09;;;;;;;3.00;2.77;;;27.70;1.00;;;;;;5335347;26;20226;-71
2024/04/14 07:56:34;;;;;;;4.00;3.60;;;26.70;1.00;;;;;;5336203;26;20516;-72
2024/04/14 07:59:01;;;;;;;3.57;3.27;;;26.80;1.00;;;;;;5336095;26;20230;-71
2024/04/14 08:01:27;;;;;;;3.23;2.93;;;27.00;1.00;;;;;;5334919;26;20259;-71
2024/04/14 08:03:53;;;;;;;3.50;3.20;;;27.70;1.00;;;;;;5332794;26;20452;-71
2024/04/14 08:06:18;;;;;;;4.00;3.40;;;27.80;1.00;;;;;;5334866;26;20319;-71
2024/04/14 08:08:44;;;;;;;3.63;3.33;;;27.70;1.00;;;;;;5334602;26;20226;-71
2024/04/14 08:11:11;;;;;;;3.63;3.00;;;27.40;1.00;;;;;;5334366;26;20225;-71
2024/04/14 08:13:37;;;;;;;4.27;3.97;;;28.40;1.00;;;;;;5334701;26;20476;-71
2024/04/14 08:16:03;;;;;;;4.47;3.17;;;29.80;1.00;;;;;;5334910;26;20491;-71
2024/04/14 08:18:31;;;;;;;4.30;3.90;;;29.50;1.00;;;;;;5334641;26;20233;-71
2024/04/14 08:20:59;;;;;;;3.33;2.87;;;29.00;1.00;;;;;;5334068;26;20265;-71
2024/04/14 08:23:26;;;;;;;3.50;3.20;;;29.60;1.00;;;;;;5332072;26;20460;-70
2024/04/14 08:25:52;;;;;;;3.60;3.30;;;31.00;1.00;;;;;;5361724;26;20460;-71
2024/04/14 08:28:20;;;;;;;3.30;3.00;;;31.20;1.00;;;;;;5334960;26;20505;-71
2024/04/14 08:30:48;;;;;;;3.50;3.20;;;31.10;1.00;;;;;;5334759;26;20575;-71
2024/04/14 08:33:14;;;;;;;4.07;3.33;;;30.60;1.00;;;;;;5334316;26;20817;-71
2024/04/14 08:35:39;;;;;;;3.20;3.00;;;29.10;1.00;;;;;;5334541;26;21007;-70
2024/04/14 08:38:05;;;;;;;3.40;3.10;;;28.90;1.00;;;;;;5334642;26;20226;-71
2024/04/14 08:40:31;;;;;;;4.87;3.23;;;28.60;1.00;;;;;;5334994;26;20233;-70
2024/04/14 08:42:57;;;;;;;3.80;3.50;;;29.90;1.00;;;;;;5335168;26;20268;-73
2024/04/14 08:45:24;;;;;;;5.70;3.10;;;30.30;1.00;;;;;;5334474;26;20456;-71
2024/04/14 08:47:53;;;;;;;3.30;3.10;;;30.60;1.00;;;;;;5334566;26;20253;-71
2024/04/14 08:50:23;;;;;;;3.50;3.20;;;31.50;1.00;;;;;;5334705;26;20558;-70
2024/04/14 08:52:49;;;;;;;3.13;2.93;;;31.00;1.00;;;;;;5334875;26;20468;-70
2024/04/14 08:55:14;;;;;;;3.63;3.33;;;29.30;1.00;;;;;;5334416;26;20856;-72
2024/04/14 08:57:40;;;;;;;3.87;3.07;;;28.00;1.00;;;;;;5361598;26;20508;-70
2024/04/14 09:00:12;;;;;;;3.63;3.33;;;27.20;1.00;;;;;;5334258;26;20276;-71
2024/04/14 09:02:42;;;;;;;3.30;3.10;;;26.90;1.00;;;;;;5334200;26;20456;-71
2024/04/14 09:05:12;;;;;;;3.30;2.60;;;26.60;1.00;;;;;;5332289;26;20519;-71
2024/04/14 09:07:38;;;;;;;2.70;2.50;;;25.90;1.00;;;;;;5334254;26;20656;-70
2024/04/14 09:10:05;;;;;;;3.60;2.80;;;25.70;1.00;;;;;;5332324;26;20476;-70
2024/04/14 09:12:31;;;;;;;3.57;2.97;;;25.20;1.00;;;;;;5361613;26;20465;-70
2024/04/14 09:14:57;;;;;;;3.20;2.73;;;25.10;1.00;;;;;;5337245;26;20453;-70
2024/04/14 09:17:22;;;;;;;3.43;3.13;;;25.00;1.00;;;;;;5337601;26;20516;-70
2024/04/14 09:19:48;;;;;;;6.73;3.00;;;24.80;1.00;;;;;;5364683;26;20598;-70
2024/04/14 09:22:15;;;;;;;3.70;3.30;;;24.80;1.00;;;;;;5364658;26;20601;-72
2024/04/14 09:24:40;;;;;;;3.00;2.80;;;24.80;1.00;;;;;;5336944;26;20222;-70
2024/04/14 09:27:06;;;;;;;4.03;3.30;;;24.70;1.00;;;;;;5337400;26;20505;-71
2024/04/14 09:29:33;;;;;;;3.07;2.77;;;24.60;1.00;;;;;;5364601;26;20246;-71
2024/04/14 09:31:58;;;;;;;3.70;3.27;;;24.80;1.00;;;;;;5337518;26;20594;-70
2024/04/14 09:34:26;;;;;;;4.13;3.13;;;24.80;1.00;;;;;;5336459;26;20532;-71
2024/04/14 09:36:52;;;;;;;3.60;3.30;;;24.90;1.00;;;;;;5337196;26;20599;-70
2024/04/14 09:39:19;;;;;;;3.60;3.30;;;24.60;1.00;;;;;;5337232;26;20476;-70
2024/04/14 09:41:45;;;;;;;3.77;3.00;;;24.70;1.00;;;;;;5336781;26;20460;-71
2024/04/14 09:44:11;;;;;;;3.10;2.90;;;24.70;1.00;;;;;;5336595;26;20452;-71
2024/04/14 09:46:37;;;;;;;2.97;2.77;;;24.80;1.00;;;;;;5335303;26;20794;-70
2024/04/14 09:49:06;;;;;;;3.37;3.07;;;24.90;1.00;;;;;;5337032;26;20532;-70
2024/04/14 09:51:36;;;;;;;5.10;3.47;;;25.10;1.00;;;;;;5336694;26;20329;-71
2024/04/14 09:54:05;;;;;;;3.50;3.20;;;25.20;1.00;;;;;;5336315;26;20456;-71
2024/04/14 09:56:31;;;;;;;3.27;3.03;;;25.00;1.00;;;;;;5336439;26;21007;-71
2024/04/14 09:58:57;;;;;;;2.97;2.73;;;25.10;1.00;;;;;;5336595;26;20472;-71
2024/04/14 10:01:31;;;;;;;3.50;3.20;;;25.20;1.00;;;;;;5336493;26;20349;-72
2024/04/14 10:04:00;;;;;;;3.10;2.67;;;24.90;1.00;;;;;;5363722;26;20230;-71
2024/04/14 10:06:27;;;;;;;3.43;3.13;;;25.00;1.00;;;;;;5336889;26;20456;-70
2024/04/14 10:08:53;;;;;;;4.40;3.13;;;25.00;1.00;;;;;;5363893;26;20580;-71
2024/04/14 10:11:19;;;;;;;3.67;3.03;;;25.00;1.00;;;;;;5336723;26;20505;-70
2024/04/14 10:13:51;;;;;;;4.30;3.50;;;25.20;1.00;;;;;;5336102;26;20222;-70
2024/04/14 10:16:20;;;;;;;3.80;3.43;;;25.30;1.00;;;;;;5336366;26;20660;-70
2024/04/14 10:18:47;;;;;;;3.30;3.00;;;25.10;1.00;;;;;;5334826;26;20550;-71
2024/04/14 10:21:15;;;;;;;3.60;3.30;;;25.20;1.00;;;;;;5336584;26;20528;-70
2024/04/14 10:23:58;;;;;;;3.57;3.27;;;25.10;1.00;;;;;;5334396;26;20472;-71
2024/04/14 10:26:24;;;;;;;3.20;2.93;;;25.10;1.00;;;;;;5363071;26;20469;-70
2024/04/14 10:28:54;;;;;;;3.60;3.30;;;25.30;1.00;;;;;;5334515;26;21018;-71
2024/04/14 10:31:30;;;;;;;3.50;3.20;;;25.30;1.00;;;;;;5336890;26;20464;-70
2024/04/14 10:34:05;;;;;;;3.60;3.30;;;25.60;1.00;;;;;;5336370;26;20634;-70
2024/04/14 10:36:34;;;;;;;3.40;3.10;;;25.50;1.00;;;;;;5364168;26;20822;-70
2024/04/14 10:39:03;;;;;;;4.03;3.63;;;25.30;1.00;;;;;;5336815;26;20524;-71
2024/04/14 10:41:28;;;;;;;4.90;3.53;;;25.50;1.00;;;;;;5336750;26;20569;-70
2024/04/14 10:43:54;;;;;;;3.70;3.40;;;25.70;1.00;;;;;;5336206;26;20559;-70
2024/04/14 10:46:20;;;;;;;3.77;3.47;;;25.70;1.00;;;;;;5335047;26;20257;-70
2024/04/14 10:48:47;;;;;;;3.70;3.40;;;25.60;1.00;;;;;;5335805;26;20234;-72
2024/04/14 10:51:13;;;;;;;4.73;2.90;;;25.40;1.00;;;;;;5334165;26;20575;-71
2024/04/14 10:53:39;;;;;;;5.20;3.07;;;25.60;1.00;;;;;;5335313;26;20528;-71
2024/04/14 10:56:09;;;;;;;7.43;3.90;;;25.70;1.00;;;;;;5334069;26;20865;-71
2024/04/14 10:58:37;;;;;;;3.47;3.17;;;25.90;1.00;;;;;;5335716;26;20512;-71
2024/04/14 11:01:03;;;;;;;3.40;3.10;;;26.00;1.00;;;;;;5334449;26;20469;-71
2024/04/14 11:03:30;;;;;;;3.67;3.37;;;26.20;1.00;;;;;;5334097;26;20846;-71
2024/04/14 11:05:56;;;;;;;5.67;3.30;;;26.50;1.00;;;;;;5335792;26;20448;-71
2024/04/14 11:08:23;;;;;;;4.57;3.57;;;26.80;1.00;;;;;;5335927;26;20505;-71
2024/04/14 11:10:50;;;;;;;4.33;3.23;;;26.80;1.00;;;;;;5335422;26;20222;-70
2024/04/14 11:13:17;;;;;;;3.87;3.57;;;26.50;1.00;;;;;;5335503;26;20460;-71
2024/04/14 11:15:43;;;;;;;7.10;3.50;;;26.40;1.00;;;;;;5362693;26;20457;-70
2024/04/14 11:18:09;;;;;;;6.27;3.93;;;26.40;1.00;;;;;;5335432;26;20514;-73
2024/04/14 11:20:35;;;;;;;5.40;3.27;;;26.40;1.00;;;;;;5335104;26;20260;-71
2024/04/14 11:23:01;;;;;;;3.33;3.03;;;26.30;1.00;;;;;;5335202;26;20218;-71
2024/04/14 11:25:28;;;;;;;4.03;3.73;;;26.50;1.00;;;;;;5335088;26;20453;-71
2024/04/14 11:27:54;;;;;;;4.00;3.70;;;26.50;1.00;;;;;;5335688;26;20860;-71
2024/04/14 11:30:20;;;;;;;4.37;3.97;;;26.50;1.00;;;;;;5335507;26;20472;-71
2024/04/14 11:32:45;;;;;;;4.50;4.13;;;26.90;1.00;;;;;;5335142;26;20452;-72
2024/04/14 11:35:13;;;;;;;4.20;3.80;;;27.20;1.00;;;;;;5334032;26;20584;-72
2024/04/14 11:37:44;;;;;;;5.23;4.73;;;27.30;1.00;;;;;;5334662;26;20221;-71
2024/04/14 11:40:13;;;;;;;4.97;4.57;;;27.20;1.00;;;;;;5332640;26;20827;-72
2024/04/14 11:42:39;;;;;;;4.70;4.37;;;27.20;1.00;;;;;;5334253;26;20464;-72
2024/04/14 11:45:08;;;;;;;5.17;3.70;;;26.90;1.00;;;;;;5334809;26;20512;-73
2024/04/14 11:47:34;;;;;;;7.00;4.23;;;27.00;1.00;;;;;;5334971;26;20713;-72
2024/04/14 11:49:59;;;;;;;4.00;3.60;;;27.00;1.00;;;;;;5334721;26;20520;-71
2024/04/14 11:52:25;;;;;;;7.73;4.87;;;27.10;1.00;;;;;;5334826;26;20833;-72
2024/04/14 11:54:50;;;;;;;3.73;3.43;;;27.10;1.00;;;;;;5334754;26;20257;-72
2024/04/14 11:57:16;;;;;;;3.30;3.10;;;27.10;1.00;;;;;;5335030;26;20229;-72
2024/04/14 11:59:42;;;;;;;3.67;3.37;;;27.10;1.00;;;;;;5334941;26;20350;-71
2024/04/14 12:02:07;;;;;;;3.50;3.20;;;27.30;1.00;;;;;;5334496;26;20218;-72
2024/04/14 12:04:33;;;;;;;3.80;3.50;;;27.30;1.00;;;;;;5334092;26;20268;-71
2024/04/14 12:06:58;;;;;;;4.00;3.60;;;26.90;1.00;;;;;;5332870;26;20268;-72
2024/04/14 12:09:24;;;;;;;3.90;3.60;;;26.80;1.00;;;;;;5362001;26;20242;-71
2024/04/14 12:11:49;;;;;;;4.77;3.53;;;26.90;1.00;;;;;;5334429;26;20273;-72
2024/04/14 12:14:15;;;;;;;3.40;3.20;;;26.90;1.00;;;;;;5334355;26;20234;-72
2024/04/14 12:16:41;;;;;;;4.10;3.70;;;27.10;1.00;;;;;;5334433;26;20292;-71
2024/04/14 12:19:07;;;;;;;4.00;3.60;;;27.40;1.00;;;;;;5361688;26;20346;-71
2024/04/14 12:21:32;;;;;;;3.77;3.47;;;27.40;1.00;;;;;;5332866;26;20468;-71
2024/04/14 12:23:58;;;;;;;3.63;3.33;;;27.40;1.00;;;;;;5361394;26;20245;-70
2024/04/14 12:26:24;;;;;;;3.77;3.47;;;27.20;1.00;;;;;;5334367;26;20218;-70
2024/04/14 12:28:49;;;;;;;4.10;3.80;;;27.20;1.00;;;;;;5334676;26;20273;-71
2024/04/14 12:31:15;;;;;;;3.50;3.20;;;27.40;1.00;;;;;;5334738;26;20230;-71
2024/04/14 12:33:41;;;;;;;4.17;3.77;;;27.70;1.00;;;;;;5334245;26;20221;-71
2024/04/14 12:36:07;;;;;;;7.40;3.70;;;27.50;1.00;;;;;;5362538;26;20238;-72
2024/04/14 12:38:33;;;;;;;3.97;3.67;;;27.30;1.00;;;;;;5335277;26;20504;-71
2024/04/14 12:40:59;;;;;;;4.03;3.73;;;27.30;1.00;;;;;;5334793;26;20217;-70
2024/04/14 12:43:26;;;;;;;4.07;3.67;;;27.30;1.00;;;;;;5336028;26;20520;-71
2024/04/14 12:45:53;;;;;;;3.50;3.30;;;27.30;1.00;;;;;;5335930;26;20268;-72
2024/04/14 12:48:21;;;;;;;3.43;3.10;;;27.30;1.00;;;;;;5337627;26;20476;-72
2024/04/14 12:50:50;;;;;;;3.90;3.60;;;27.10;1.00;;;;;;5339321;26;20472;-71
2024/04/14 12:53:17;;;;;;;3.77;3.50;;;27.20;1.00;;;;;;5337998;26;20468;-71
2024/04/14 12:55:43;;;;;;;3.60;3.30;;;27.00;1.00;;;;;;5335878;26;20472;-71